createdAt,value
2018-08-24T00:02:21.956Z,21.24
2018-08-24T00:04:48.329Z,21.25
2018-08-24T00:07:14.671Z,21.19
2018-08-24T00:09:40.966Z,21.17
2018-08-24T00:12:07.287Z,21.16
2018-08-24T00:14:33.650Z,21.16
2018-08-24T00:17:00.021Z,21.15
2018-08-24T00:19:26.348Z,21.16
2018-08-24T00:21:52.699Z,21.15
2018-08-24T00:24:19.000Z,21.13
2018-08-24T00:26:45.325Z,21.09
2018-08-24T00:29:11.640Z,21.04
2018-08-24T00:31:38.008Z,20.99
2018-08-24T00:34:04.287Z,20.97
2018-08-24T00:36:30.613Z,20.93
2018-08-24T00:38:56.925Z,20.89
2018-08-24T00:41:23.270Z,20.86
2018-08-24T00:43:49.581Z,20.84
2018-08-24T00:46:15.904Z,20.83
2018-08-24T00:48:42.249Z,20.84
2018-08-24T00:51:08.595Z,20.85
2018-08-24T00:53:34.908Z,20.88
2018-08-24T00:56:01.230Z,20.85
2018-08-24T00:58:27.601Z,20.80
2018-08-24T01:00:53.898Z,20.78
2018-08-24T01:03:20.224Z,20.80
2018-08-24T01:05:46.552Z,20.80
2018-08-24T01:08:12.864Z,20.80
2018-08-24T01:10:39.180Z,20.85
2018-08-24T01:13:05.511Z,20.85
2018-08-24T01:15:31.827Z,20.84
2018-08-24T01:17:58.141Z,20.83
2018-08-24T01:20:24.464Z,20.84
2018-08-24T01:22:50.795Z,20.85
2018-08-24T01:25:17.105Z,20.82
2018-08-24T01:27:43.434Z,20.81
2018-08-24T01:30:09.758Z,20.82
2018-08-24T01:32:36.085Z,20.83
2018-08-24T01:35:02.434Z,20.81
2018-08-24T01:37:28.726Z,20.82
2018-08-24T01:39:55.074Z,20.78
2018-08-24T01:42:21.395Z,20.70
2018-08-24T01:44:47.797Z,20.64
2018-08-24T01:47:14.033Z,20.57
2018-08-24T01:49:40.374Z,20.52
2018-08-24T01:52:06.688Z,20.48
2018-08-24T01:54:32.996Z,20.45
2018-08-24T01:56:59.320Z,20.47
2018-08-24T01:59:25.641Z,20.46
2018-08-24T02:01:51.958Z,20.37
2018-08-24T02:04:18.289Z,20.31
2018-08-24T02:06:44.616Z,20.28
2018-08-24T02:09:10.940Z,20.22
2018-08-24T02:11:37.281Z,20.23
2018-08-24T02:14:03.849Z,20.24
2018-08-24T02:16:30.170Z,20.18
2018-08-24T02:18:56.789Z,20.08
2018-08-24T02:21:33.947Z,20.04
2018-08-24T02:23:50.395Z,20.00
2018-08-24T02:26:17.467Z,19.95
2018-08-24T02:28:44.026Z,19.90
2018-08-24T02:31:11.082Z,19.82
2018-08-24T02:33:38.921Z,19.75
2018-08-24T02:36:05.868Z,19.69
2018-08-24T02:38:32.111Z,19.62
2018-08-24T02:40:58.424Z,19.56
2018-08-24T02:43:24.738Z,19.51
2018-08-24T02:45:51.105Z,19.45
2018-08-24T02:48:17.424Z,19.45
2018-08-24T02:50:43.740Z,19.39
2018-08-24T02:53:10.064Z,19.31
2018-08-24T02:55:36.382Z,19.28
2018-08-24T02:58:02.735Z,19.23
2018-08-24T03:00:29.027Z,19.15
2018-08-24T03:02:55.393Z,19.10
2018-08-24T03:05:21.852Z,19.06
2018-08-24T03:07:48.056Z,19.04
2018-08-24T03:10:14.365Z,19.05
2018-08-24T03:12:40.747Z,19.03
2018-08-24T03:15:07.057Z,19.00
2018-08-24T03:17:33.387Z,18.93
2018-08-24T03:19:59.706Z,18.81
2018-08-24T03:22:26.040Z,18.66
2018-08-24T03:24:52.365Z,18.54
2018-08-24T03:27:18.685Z,18.47
2018-08-24T03:29:45.003Z,18.48
2018-08-24T03:32:11.336Z,18.48
2018-08-24T03:34:37.668Z,18.43
2018-08-24T03:37:04.027Z,18.32
2018-08-24T03:39:30.372Z,18.31
2018-08-24T03:41:56.684Z,18.32
2018-08-24T03:44:23.008Z,18.30
2018-08-24T03:46:49.325Z,18.30
2018-08-24T03:49:15.653Z,18.28
2018-08-24T03:51:41.974Z,18.23
2018-08-24T03:54:08.304Z,18.22
2018-08-24T03:56:34.616Z,18.30
2018-08-24T03:59:00.975Z,18.33
2018-08-24T04:01:27.283Z,18.31
2018-08-24T04:03:53.605Z,18.33
2018-08-24T04:06:19.924Z,18.40
2018-08-24T04:08:46.285Z,18.40
2018-08-24T04:11:12.604Z,18.38
2018-08-24T04:13:38.916Z,18.42
2018-08-24T04:16:05.245Z,18.51
2018-08-24T04:18:31.564Z,18.64
2018-08-24T04:20:57.898Z,18.80
2018-08-24T04:23:24.253Z,18.89
2018-08-24T04:25:50.655Z,18.96
2018-08-24T04:28:16.947Z,19.02
2018-08-24T04:30:43.308Z,19.27
2018-08-24T04:33:09.619Z,19.51
2018-08-24T04:35:35.976Z,19.72
2018-08-24T04:38:02.305Z,19.69
2018-08-24T04:40:28.713Z,19.77
2018-08-24T04:42:54.935Z,19.80
2018-08-24T04:45:21.298Z,20.00
2018-08-24T04:47:47.637Z,20.03
2018-08-24T04:50:13.953Z,20.04
2018-08-24T04:52:40.313Z,20.22
2018-08-24T04:55:06.633Z,20.29
2018-08-24T04:57:32.981Z,20.51
2018-08-24T04:59:59.292Z,20.60
2018-08-24T05:02:25.608Z,20.37
2018-08-24T05:04:51.972Z,20.25
2018-08-24T05:07:18.297Z,20.40
2018-08-24T05:09:44.623Z,20.56
2018-08-24T05:12:10.936Z,20.89
2018-08-24T05:14:37.245Z,20.85
2018-08-24T05:17:03.561Z,21.12
2018-08-24T05:19:29.880Z,21.29
2018-08-24T05:21:56.200Z,21.10
2018-08-24T05:24:22.513Z,21.16
2018-08-24T05:26:48.831Z,21.39
2018-08-24T05:29:15.148Z,21.50
2018-08-24T05:31:41.461Z,21.78
2018-08-24T05:34:07.780Z,21.88
2018-08-24T05:36:34.098Z,22.15
2018-08-24T05:39:00.422Z,22.25
2018-08-24T05:41:26.760Z,22.38
2018-08-24T05:43:53.063Z,22.48
2018-08-24T05:46:19.397Z,22.34
2018-08-24T05:48:45.745Z,22.53
2018-08-24T05:51:12.043Z,22.83
2018-08-24T05:53:38.366Z,22.65
2018-08-24T05:56:04.689Z,22.64
2018-08-24T05:58:31.001Z,22.91
2018-08-24T06:00:57.353Z,23.23
2018-08-24T06:03:23.635Z,23.31
2018-08-24T06:05:50.057Z,23.72
2018-08-24T06:08:16.315Z,23.50
2018-08-24T06:10:42.667Z,23.33
2018-08-24T06:13:08.973Z,23.42
2018-08-24T06:15:35.330Z,23.74
2018-08-24T06:18:01.656Z,23.98
2018-08-24T06:20:27.960Z,24.10
2018-08-24T06:22:54.278Z,24.01
2018-08-24T06:25:20.635Z,24.19
2018-08-24T06:27:46.961Z,24.50
2018-08-24T06:30:13.321Z,24.28
2018-08-24T06:32:39.680Z,24.30
2018-08-24T06:35:05.972Z,24.33
2018-08-24T06:37:32.298Z,24.32
2018-08-24T06:39:58.644Z,24.67
2018-08-24T06:42:24.959Z,24.82
2018-08-24T06:44:51.286Z,25.04
2018-08-24T06:47:17.647Z,25.12
2018-08-24T06:49:43.976Z,25.00
2018-08-24T06:52:10.305Z,25.08
2018-08-24T06:54:36.651Z,25.21
2018-08-24T06:57:02.966Z,25.45
2018-08-24T06:59:29.303Z,25.40
2018-08-24T07:01:55.668Z,25.77
2018-08-24T07:04:22.068Z,26.07
2018-08-24T07:06:48.384Z,26.55
2018-08-24T07:09:14.725Z,26.48
2018-08-24T07:11:41.078Z,26.69
2018-08-24T07:14:07.399Z,27.12
2018-08-24T07:16:33.731Z,27.49
2018-08-24T07:19:00.222Z,27.34
2018-08-24T07:21:26.531Z,27.31
2018-08-24T07:23:52.862Z,27.36
2018-08-24T07:26:19.190Z,26.92
2018-08-24T07:28:45.516Z,26.83
2018-08-24T07:31:11.854Z,27.11
2018-08-24T07:33:38.164Z,27.44
2018-08-24T07:36:04.484Z,27.40
2018-08-24T07:38:30.808Z,27.34
2018-08-24T07:40:57.159Z,27.06
2018-08-24T07:43:23.472Z,26.80
2018-08-24T07:45:49.811Z,26.96
2018-08-24T07:48:16.168Z,27.73
2018-08-24T07:50:42.513Z,28.04
2018-08-24T07:53:08.778Z,28.17
2018-08-24T07:55:35.112Z,28.05
2018-08-24T07:58:01.441Z,27.64
2018-08-24T08:00:27.769Z,28.01
2018-08-24T08:02:54.094Z,27.84
2018-08-24T08:05:20.504Z,27.96
2018-08-24T08:07:46.765Z,27.98
2018-08-24T08:10:13.127Z,27.95
2018-08-24T08:12:39.492Z,27.77
2018-08-24T08:15:05.764Z,28.16
2018-08-24T08:17:32.122Z,28.20
2018-08-24T08:19:58.455Z,27.86
2018-08-24T08:22:24.790Z,28.34
2018-08-24T08:24:51.221Z,28.83
2018-08-24T08:27:17.502Z,28.85
2018-08-24T08:29:43.813Z,29.06
2018-08-24T08:32:10.147Z,29.69
2018-08-24T08:34:36.467Z,29.60
2018-08-24T08:37:02.794Z,29.73
2018-08-24T08:39:29.168Z,29.49
2018-08-24T08:41:55.510Z,28.95
2018-08-24T08:44:21.819Z,28.61
2018-08-24T08:46:48.133Z,29.05
2018-08-24T08:49:14.446Z,29.17
2018-08-24T08:51:40.789Z,29.38
2018-08-24T08:54:07.111Z,29.66
2018-08-24T08:56:33.424Z,29.86
2018-08-24T08:58:59.793Z,29.82
2018-08-24T09:01:26.121Z,29.98
2018-08-24T09:03:52.484Z,29.68
2018-08-24T09:06:18.813Z,29.55
2018-08-24T09:08:45.107Z,30.21
2018-08-24T09:11:11.437Z,29.88
2018-08-24T09:13:37.803Z,30.17
2018-08-24T09:16:04.164Z,30.57
2018-08-24T09:18:30.565Z,30.76
2018-08-24T09:20:56.859Z,30.68
2018-08-24T09:23:23.241Z,30.19
2018-08-24T09:25:49.682Z,29.66
2018-08-24T09:28:15.909Z,29.81
2018-08-24T09:30:42.235Z,29.52
2018-08-24T09:33:08.564Z,29.55
2018-08-24T09:35:34.881Z,29.46
2018-08-24T09:38:01.251Z,30.10
2018-08-24T09:40:27.568Z,30.26
2018-08-24T09:42:53.899Z,30.53
2018-08-24T09:45:20.260Z,30.40
2018-08-24T09:47:46.618Z,30.33
2018-08-24T09:50:12.907Z,30.07
2018-08-24T09:52:39.218Z,30.03
2018-08-24T09:55:05.580Z,30.53
2018-08-24T09:57:31.898Z,30.54
2018-08-24T10:00:00.726Z,30.28
2018-08-24T10:02:24.644Z,30.58
2018-08-24T10:04:50.987Z,30.66
2018-08-24T10:07:17.374Z,30.77
2018-08-24T10:09:43.702Z,30.51
2018-08-24T10:12:10.032Z,30.20
2018-08-24T10:14:36.360Z,30.42
2018-08-24T10:17:02.714Z,30.78
2018-08-24T10:19:29.022Z,30.77
2018-08-24T10:21:55.337Z,30.86
2018-08-24T10:24:21.659Z,30.64
2018-08-24T10:26:47.992Z,30.15
2018-08-24T10:29:14.318Z,29.12
2018-08-24T10:31:40.648Z,29.17
2018-08-24T10:34:06.976Z,28.92
2018-08-24T10:36:33.289Z,28.92
2018-08-24T10:38:59.750Z,29.06
2018-08-24T10:41:25.962Z,29.15
2018-08-24T10:43:52.315Z,29.23
2018-08-24T10:46:18.631Z,29.42
2018-08-24T10:48:44.963Z,28.66
2018-08-24T10:51:11.297Z,28.49
2018-08-24T10:53:37.613Z,29.00
2018-08-24T10:56:03.968Z,29.26
2018-08-24T10:58:30.287Z,29.34
2018-08-24T11:00:56.649Z,29.07
2018-08-24T11:03:22.971Z,29.59
2018-08-24T11:05:49.282Z,29.58
2018-08-24T11:08:15.613Z,29.68
2018-08-24T11:10:41.934Z,29.80
2018-08-24T11:13:08.264Z,30.14
2018-08-24T11:15:34.583Z,30.49
2018-08-24T11:18:00.944Z,30.94
2018-08-24T11:20:27.286Z,31.08
2018-08-24T11:22:53.608Z,31.45
2018-08-24T11:25:19.970Z,31.48
2018-08-24T11:27:46.344Z,30.98
2018-08-24T11:30:12.728Z,31.05
2018-08-24T11:32:39.100Z,30.99
2018-08-24T11:35:05.412Z,31.25
2018-08-24T11:37:31.756Z,31.24
2018-08-24T11:39:58.163Z,31.32
2018-08-24T11:42:24.475Z,31.22
2018-08-24T11:44:50.811Z,31.11
2018-08-24T11:47:17.146Z,31.35
2018-08-24T11:49:43.484Z,31.45
2018-08-24T11:52:09.856Z,31.00
2018-08-24T11:54:36.381Z,30.94
2018-08-24T11:57:02.562Z,30.82
2018-08-24T11:59:28.905Z,31.06
2018-08-24T12:01:55.331Z,31.95
2018-08-24T12:04:21.633Z,32.20
2018-08-24T12:06:48.008Z,32.22
2018-08-24T12:09:14.335Z,32.10
2018-08-24T12:11:40.660Z,32.15
2018-08-24T12:14:07.046Z,31.55
2018-08-24T12:16:33.317Z,31.43
2018-08-24T12:18:59.684Z,31.23
2018-08-24T12:21:26.012Z,31.30
2018-08-24T12:23:52.350Z,31.61
2018-08-24T12:26:18.673Z,31.02
2018-08-24T12:28:44.995Z,30.80
2018-08-24T12:31:11.302Z,30.88
2018-08-24T12:33:37.618Z,31.05
2018-08-24T12:36:03.950Z,31.11
2018-08-24T12:38:30.278Z,31.58
2018-08-24T12:40:56.609Z,31.19
2018-08-24T12:43:22.934Z,31.14
2018-08-24T12:45:49.240Z,31.05
2018-08-24T12:48:15.558Z,31.25
2018-08-24T12:50:41.868Z,31.38
2018-08-24T12:53:08.198Z,31.17
2018-08-24T12:55:34.531Z,30.72
2018-08-24T12:58:00.844Z,30.27
2018-08-24T13:00:27.167Z,30.70
2018-08-24T13:02:53.492Z,30.67
2018-08-24T13:05:19.806Z,30.59
2018-08-24T13:07:46.139Z,30.57
2018-08-24T13:10:12.448Z,30.62
2018-08-24T13:12:38.821Z,30.69
2018-08-24T13:15:05.201Z,30.66
2018-08-24T13:17:31.482Z,30.37
2018-08-24T13:19:57.797Z,30.38
2018-08-24T13:22:24.118Z,30.20
2018-08-24T13:24:50.507Z,30.25
2018-08-24T13:27:16.883Z,30.37
2018-08-24T13:29:43.168Z,30.60
2018-08-24T13:32:09.499Z,30.35
2018-08-24T13:34:35.832Z,30.06
2018-08-24T13:37:02.211Z,29.97
2018-08-24T13:39:28.529Z,29.89
2018-08-24T13:41:54.833Z,29.87
2018-08-24T13:44:21.157Z,29.85
2018-08-24T13:46:47.469Z,29.88
2018-08-24T13:49:13.821Z,29.74
2018-08-24T13:51:40.174Z,29.66
2018-08-24T13:54:06.488Z,29.76
2018-08-24T13:56:32.815Z,29.58
2018-08-24T13:58:59.124Z,29.41
2018-08-24T14:01:25.439Z,29.63
2018-08-24T14:03:51.806Z,29.76
2018-08-24T14:06:18.125Z,30.12
2018-08-24T14:08:44.440Z,29.74
2018-08-24T14:11:10.752Z,29.44
2018-08-24T14:13:37.175Z,29.53
2018-08-24T14:16:03.439Z,29.36
2018-08-24T14:18:29.755Z,29.35
2018-08-24T14:20:56.244Z,29.28
2018-08-24T14:23:22.402Z,29.36
2018-08-24T14:25:48.732Z,29.46
2018-08-24T14:28:15.041Z,29.58
2018-08-24T14:30:41.362Z,29.63
2018-08-24T14:33:07.676Z,29.67
2018-08-24T14:35:34.008Z,29.64
2018-08-24T14:38:00.361Z,29.46
2018-08-24T14:40:26.693Z,29.41
2018-08-24T14:42:53.006Z,29.40
2018-08-24T14:45:19.338Z,29.60
2018-08-24T14:47:45.668Z,29.68
2018-08-24T14:50:11.999Z,29.65
2018-08-24T14:52:38.402Z,29.51
2018-08-24T14:55:04.743Z,29.60
2018-08-24T14:57:31.076Z,29.54
2018-08-24T14:59:57.372Z,29.45
2018-08-24T15:02:23.717Z,29.44
2018-08-24T15:04:49.999Z,29.32
2018-08-24T15:07:16.313Z,29.32
2018-08-24T15:09:42.630Z,29.18
2018-08-24T15:12:08.945Z,29.21
2018-08-24T15:14:35.259Z,29.19
2018-08-24T15:17:01.624Z,29.10
2018-08-24T15:19:27.886Z,28.94
2018-08-24T15:21:54.234Z,28.94
2018-08-24T15:24:20.518Z,28.88
2018-08-24T15:26:46.832Z,28.86
2018-08-24T15:29:13.153Z,28.93
2018-08-24T15:31:39.505Z,28.89
2018-08-24T15:34:05.822Z,28.89
2018-08-24T15:36:32.195Z,28.82
2018-08-24T15:38:58.516Z,28.82
2018-08-24T15:41:24.835Z,28.81
2018-08-24T15:43:51.148Z,28.74
2018-08-24T15:46:17.496Z,28.66
2018-08-24T15:48:43.775Z,28.36
2018-08-24T15:51:10.090Z,28.19
2018-08-24T15:53:36.401Z,28.19
2018-08-24T15:56:02.714Z,28.26
2018-08-24T15:58:29.026Z,28.28
2018-08-24T16:00:55.341Z,28.29
2018-08-24T16:03:21.648Z,28.31
2018-08-24T16:05:48.003Z,28.22
2018-08-24T16:08:14.330Z,28.13
2018-08-24T16:10:40.684Z,28.07
2018-08-24T16:13:07.058Z,28.04
2018-08-24T16:15:33.369Z,27.97
2018-08-24T16:17:59.704Z,27.92
2018-08-24T16:20:25.997Z,27.81
2018-08-24T16:22:52.304Z,27.75
2018-08-24T16:25:18.769Z,27.70
2018-08-24T16:27:45.091Z,27.68
2018-08-24T16:30:11.411Z,27.69
2018-08-24T16:32:37.747Z,27.64
2018-08-24T16:35:04.041Z,27.49
2018-08-24T16:37:30.356Z,27.38
2018-08-24T16:39:56.669Z,27.33
2018-08-24T16:42:22.980Z,27.31
2018-08-24T16:44:49.299Z,27.24
2018-08-24T16:47:15.612Z,27.16
2018-08-24T16:49:41.942Z,27.09
2018-08-24T16:52:08.264Z,27.00
2018-08-24T16:54:34.583Z,26.90
2018-08-24T16:57:00.937Z,26.84
2018-08-24T16:59:27.264Z,26.78
2018-08-24T17:01:53.581Z,26.68
2018-08-24T17:04:19.889Z,26.61
2018-08-24T17:06:46.200Z,26.48
2018-08-24T17:09:12.512Z,26.39
2018-08-24T17:11:38.825Z,26.33
2018-08-24T17:14:05.146Z,26.25
2018-08-24T17:16:31.465Z,26.16
2018-08-24T17:18:57.776Z,26.03
2018-08-24T17:21:24.089Z,25.95
2018-08-24T17:23:50.421Z,25.89
2018-08-24T17:26:16.751Z,25.83
2018-08-24T17:28:43.088Z,25.74
2018-08-24T17:31:09.382Z,25.68
2018-08-24T17:33:35.713Z,25.63
2018-08-24T17:36:02.024Z,25.62
2018-08-24T17:38:28.356Z,25.60
2018-08-24T17:40:54.670Z,25.58
2018-08-24T17:43:20.997Z,25.58
2018-08-24T17:45:47.332Z,25.54
2018-08-24T17:48:13.664Z,25.47
2018-08-24T17:50:40.029Z,25.42
2018-08-24T17:53:06.356Z,25.37
2018-08-24T17:55:32.684Z,25.36
2018-08-24T17:57:59.036Z,25.35
2018-08-24T18:00:25.325Z,25.29
2018-08-24T18:02:51.639Z,25.24
2018-08-24T18:05:17.952Z,25.20
2018-08-24T18:07:44.284Z,25.17
2018-08-24T18:10:10.615Z,25.12
2018-08-24T18:12:36.996Z,25.01
2018-08-24T18:15:03.497Z,24.93
2018-08-24T18:17:29.652Z,24.86
2018-08-24T18:19:55.970Z,24.80
2018-08-24T18:22:22.282Z,24.76
2018-08-24T18:24:48.595Z,24.72
2018-08-24T18:27:14.907Z,24.69
2018-08-24T18:29:41.224Z,24.65
2018-08-24T18:32:07.534Z,24.63
2018-08-24T18:34:33.851Z,24.60
2018-08-24T18:37:00.169Z,24.56
2018-08-24T18:39:26.505Z,24.52
2018-08-24T18:41:52.821Z,24.48
2018-08-24T18:44:19.147Z,24.32
2018-08-24T18:46:45.464Z,24.19
2018-08-24T18:49:11.786Z,24.13
2018-08-24T18:51:38.113Z,24.16
2018-08-24T18:54:04.427Z,24.15
2018-08-24T18:56:30.773Z,24.10
2018-08-24T18:58:57.085Z,24.03
2018-08-24T19:01:23.380Z,23.97
2018-08-24T19:03:49.708Z,23.95
2018-08-24T19:06:16.037Z,23.93
2018-08-24T19:08:42.367Z,23.92
2018-08-24T19:11:08.680Z,23.91
2018-08-24T19:13:34.992Z,23.92
2018-08-24T19:16:01.300Z,23.82
2018-08-24T19:18:27.612Z,23.74
2018-08-24T19:20:53.925Z,23.68
2018-08-24T19:23:20.257Z,23.61
2018-08-24T19:25:46.579Z,23.57
2018-08-24T19:28:12.907Z,23.55
2018-08-24T19:30:39.223Z,23.57
2018-08-24T19:33:05.548Z,23.73
2018-08-24T19:35:31.861Z,23.82
2018-08-24T19:37:58.188Z,23.80
2018-08-24T19:40:24.501Z,23.78
2018-08-24T19:42:50.821Z,23.74
2018-08-24T19:45:17.148Z,23.72
2018-08-24T19:47:43.474Z,23.66
2018-08-24T19:50:09.804Z,23.60
2018-08-24T19:52:36.124Z,23.56
2018-08-24T19:55:02.509Z,23.53
2018-08-24T19:57:28.775Z,23.47
2018-08-24T19:59:55.094Z,23.33
2018-08-24T20:02:21.404Z,23.17
2018-08-24T20:04:47.778Z,23.12
2018-08-24T20:07:14.094Z,23.08
2018-08-24T20:09:40.415Z,23.04
2018-08-24T20:12:06.729Z,23.04
2018-08-24T20:14:33.054Z,23.00
2018-08-24T20:16:59.390Z,22.97
2018-08-24T20:19:25.698Z,22.96
2018-08-24T20:21:52.033Z,22.96
2018-08-24T20:24:18.464Z,22.90
2018-08-24T20:26:44.709Z,22.83
2018-08-24T20:29:11.017Z,22.73
2018-08-24T20:31:37.354Z,22.66
2018-08-24T20:34:03.683Z,22.61
2018-08-24T20:36:30.007Z,22.57
2018-08-24T20:38:56.355Z,22.57
2018-08-24T20:41:22.646Z,22.54
2018-08-24T20:43:48.982Z,22.47
2018-08-24T20:46:15.322Z,22.41
2018-08-24T20:48:41.637Z,22.36
2018-08-24T20:51:07.958Z,22.30
2018-08-24T20:53:34.264Z,22.25
2018-08-24T20:56:00.592Z,22.18
2018-08-24T20:58:26.926Z,22.14
2018-08-24T21:00:53.256Z,22.11
2018-08-24T21:03:19.583Z,22.07
2018-08-24T21:05:45.908Z,22.03
2018-08-24T21:08:12.236Z,21.96
2018-08-24T21:10:38.563Z,21.92
2018-08-24T21:13:04.878Z,21.91
2018-08-24T21:15:31.189Z,21.90
2018-08-24T21:17:57.526Z,21.90
2018-08-24T21:20:23.864Z,21.87
2018-08-24T21:22:50.191Z,21.82
2018-08-24T21:25:16.500Z,21.75
2018-08-24T21:27:42.814Z,21.73
2018-08-24T21:30:09.166Z,21.71
2018-08-24T21:32:35.443Z,21.65
2018-08-24T21:35:01.811Z,21.61
2018-08-24T21:37:28.140Z,21.55
2018-08-24T21:39:54.454Z,21.50
2018-08-24T21:42:20.770Z,21.49
2018-08-24T21:44:47.081Z,21.45
2018-08-24T21:47:13.393Z,21.39
2018-08-24T21:49:39.714Z,21.36
2018-08-24T21:52:06.031Z,21.33
2018-08-24T21:54:32.346Z,21.31
2018-08-24T21:56:58.689Z,21.30
2018-08-24T21:59:25.007Z,21.31
2018-08-24T22:01:51.326Z,21.25
2018-08-24T22:04:17.647Z,21.21
2018-08-24T22:06:43.965Z,21.20
2018-08-24T22:09:10.276Z,21.19
2018-08-24T22:11:36.604Z,21.16
2018-08-24T22:14:02.910Z,21.16
2018-08-24T22:16:29.259Z,21.17
2018-08-24T22:18:55.575Z,21.14
2018-08-24T22:21:21.890Z,21.10
2018-08-24T22:23:48.205Z,21.06
2018-08-24T22:26:14.513Z,21.03
2018-08-24T22:28:40.824Z,20.97
2018-08-24T22:31:07.156Z,20.92
2018-08-24T22:33:33.478Z,20.90
2018-08-24T22:35:59.809Z,20.88
2018-08-24T22:38:26.135Z,20.84
2018-08-24T22:40:52.474Z,20.80
2018-08-24T22:43:18.792Z,20.76
2018-08-24T22:45:45.125Z,20.69
2018-08-24T22:48:11.448Z,20.65
2018-08-24T22:50:37.776Z,20.60
2018-08-24T22:53:04.104Z,20.56
2018-08-24T22:55:30.440Z,20.51
2018-08-24T22:57:56.774Z,20.42
2018-08-24T23:00:23.176Z,20.34
2018-08-24T23:02:49.452Z,20.29
2018-08-24T23:05:15.820Z,20.26
2018-08-24T23:07:42.141Z,20.20
2018-08-24T23:10:08.503Z,20.12
2018-08-24T23:12:36.994Z,20.01
2018-08-24T23:15:03.363Z,19.95
2018-08-24T23:17:29.698Z,19.84
2018-08-24T23:19:56.022Z,19.70
2018-08-24T23:22:22.340Z,19.52
2018-08-24T23:24:48.677Z,19.38
2018-08-24T23:27:15.005Z,19.17
2018-08-24T23:29:41.321Z,19.06
2018-08-24T23:32:07.696Z,19.08
2018-08-24T23:34:33.977Z,19.15
2018-08-24T23:37:00.299Z,19.26
2018-08-24T23:39:26.681Z,19.28
2018-08-24T23:41:53.003Z,19.29
2018-08-24T23:44:19.335Z,19.34
2018-08-24T23:46:45.661Z,19.31
2018-08-24T23:49:11.982Z,19.45
2018-08-24T23:51:38.304Z,19.63
2018-08-24T23:54:04.629Z,19.76
2018-08-24T23:56:30.959Z,19.83
2018-08-24T23:58:57.325Z,19.98
